createdAt,value
2023-09-28T00:09:18.517Z,18.1
2023-09-28T00:24:28.760Z,18.1
2023-09-28T00:39:38.619Z,18
2023-09-28T00:54:48.054Z,18
2023-09-28T01:09:57.991Z,18.1
2023-09-28T01:25:07.892Z,18.3
2023-09-28T01:40:18.086Z,18.3
2023-09-28T01:55:28.860Z,18.2
2023-09-28T02:10:38.631Z,18.1
2023-09-28T02:25:48.555Z,18
2023-09-28T02:40:58.209Z,17.9
2023-09-28T02:56:08.413Z,17.9
2023-09-28T03:11:18.400Z,17.9
2023-09-28T03:26:28.598Z,17.9
2023-09-28T03:41:38.930Z,17.8
2023-09-28T03:56:48.233Z,17.8
2023-09-28T04:11:57.794Z,17.9
2023-09-28T04:27:07.728Z,17.9
2023-09-28T04:42:17.277Z,17.9
2023-09-28T04:57:28.018Z,17.9
2023-09-28T05:12:38.500Z,17.9
2023-09-28T05:27:48.567Z,17.9
2023-09-28T05:42:57.872Z,17.9
2023-09-28T05:58:07.437Z,17.9
2023-09-28T06:13:17.348Z,18
2023-09-28T06:28:28.162Z,18
2023-09-28T06:43:37.985Z,18.1
2023-09-28T06:58:47.607Z,18.1
2023-09-28T07:13:57.397Z,18.2
2023-09-28T07:29:07.945Z,18.4
2023-09-28T07:44:17.909Z,18.6
2023-09-28T07:59:29.782Z,19.1
2023-09-28T08:14:40.470Z,19.6
2023-09-28T08:29:51.285Z,20.1
2023-09-28T08:45:02.109Z,20.4
2023-09-28T09:00:12.617Z,20.7
2023-09-28T09:15:23.693Z,21.1
2023-09-28T09:30:34.210Z,21.4
2023-09-28T09:45:45.035Z,21.6
2023-09-28T10:00:55.014Z,21.8
2023-09-28T10:16:05.386Z,22
2023-09-28T10:31:17.083Z,22.1
2023-09-28T10:46:29.426Z,22.3
2023-09-28T11:01:39.682Z,22.5
2023-09-28T11:16:49.993Z,22.6
2023-09-28T11:32:00.783Z,23
2023-09-28T11:47:11.146Z,23.3
2023-09-28T12:02:23.276Z,27.5
2023-09-28T12:17:33.458Z,25.9
2023-09-28T12:32:45.909Z,25.8
2023-09-28T12:47:56.159Z,25.8
2023-09-28T13:03:06.595Z,25.7
2023-09-28T13:18:16.981Z,25.3
2023-09-28T13:33:30.047Z,25
2023-09-28T13:48:40.659Z,25.1
2023-09-28T14:03:51.591Z,24.8
2023-09-28T14:19:02.597Z,24.7
2023-09-28T14:36:16.650Z,25.1
2023-09-28T14:51:29.535Z,24.4
2023-09-28T15:06:39.130Z,24.1
2023-09-28T15:21:49.529Z,24
2023-09-28T15:36:58.962Z,23.8
2023-09-28T15:52:09.232Z,23.6
2023-09-28T16:07:18.554Z,23.4
2023-09-28T16:22:30.227Z,23.1
2023-09-28T16:37:40.056Z,22.8
2023-09-28T16:52:50.214Z,22.5
2023-09-28T17:07:59.635Z,22.2
2023-09-28T17:23:08.937Z,21.9
2023-09-28T17:38:19.237Z,21.6
2023-09-28T17:53:29.621Z,21.4
2023-09-28T18:08:39.528Z,21.1
2023-09-28T18:23:48.942Z,20.9
2023-09-28T18:39:12.194Z,20.8
2023-09-28T18:54:25.605Z,20.6
2023-09-28T19:09:35.529Z,20.4
2023-09-28T19:24:45.201Z,20.3
2023-09-28T19:39:55.425Z,20.1
2023-09-28T19:55:04.419Z,20
2023-09-28T20:10:14.271Z,19.8
2023-09-28T20:25:24.114Z,19.7
2023-09-28T20:40:33.957Z,19.6
2023-09-28T20:55:43.665Z,19.4
2023-09-28T21:10:52.985Z,19.3
2023-09-28T21:26:02.840Z,19.1
2023-09-28T21:41:12.434Z,19
2023-09-28T21:56:22.104Z,18.9
2023-09-28T22:11:32.764Z,18.8
2023-09-28T22:26:42.944Z,18.7
2023-09-28T22:41:53.675Z,18.7
2023-09-28T22:57:04.868Z,18.7
2023-09-28T23:12:14.836Z,18.7
2023-09-28T23:27:24.124Z,18.6
2023-09-28T23:42:34.097Z,18.5
2023-09-28T23:57:43.401Z,18.5
